sensor_id;sensor_type;location;lat;lon;timestamp;P1;durP1;ratioP1;P2;durP2;ratioP2
22270;SDS011;11304;53.520;10.104;2023-05-13T00:01:28;10.93;;;5.07;;
22270;SDS011;11304;53.520;10.104;2023-05-13T00:03:55;11.93;;;5.38;;
22270;SDS011;11304;53.520;10.104;2023-05-13T00:06:21;10.43;;;5.43;;
22270;SDS011;11304;53.520;10.104;2023-05-13T00:08:47;8.93;;;5.05;;
22270;SDS011;11304;53.520;10.104;2023-05-13T00:11:13;8.98;;;5.15;;
22270;SDS011;11304;53.520;10.104;2023-05-13T00:13:39;7.57;;;5.53;;
22270;SDS011;11304;53.520;10.104;2023-05-13T00:16:05;9.25;;;5.82;;
22270;SDS011;11304;53.520;10.104;2023-05-13T00:18:31;7.97;;;5.03;;
22270;SDS011;11304;53.520;10.104;2023-05-13T00:20:57;8.00;;;5.50;;
22270;SDS011;11304;53.520;10.104;2023-05-13T00:23:23;7.70;;;5.30;;
22270;SDS011;11304;53.520;10.104;2023-05-13T00:25:50;7.35;;;5.38;;
22270;SDS011;11304;53.520;10.104;2023-05-13T00:28:16;9.30;;;5.20;;
22270;SDS011;11304;53.520;10.104;2023-05-13T00:30:42;11.30;;;5.47;;
22270;SDS011;11304;53.520;10.104;2023-05-13T00:33:09;8.88;;;5.68;;
22270;SDS011;11304;53.520;10.104;2023-05-13T00:35:36;8.55;;;5.55;;
22270;SDS011;11304;53.520;10.104;2023-05-13T00:38:02;11.00;;;6.28;;
22270;SDS011;11304;53.520;10.104;2023-05-13T00:40:28;12.15;;;6.55;;
22270;SDS011;11304;53.520;10.104;2023-05-13T00:42:54;11.75;;;6.50;;
22270;SDS011;11304;53.520;10.104;2023-05-13T00:45:20;7.43;;;5.30;;
22270;SDS011;11304;53.520;10.104;2023-05-13T00:47:47;10.18;;;5.95;;
22270;SDS011;11304;53.520;10.104;2023-05-13T00:50:13;18.23;;;6.38;;
22270;SDS011;11304;53.520;10.104;2023-05-13T00:52:40;7.90;;;5.93;;
22270;SDS011;11304;53.520;10.104;2023-05-13T00:55:07;9.63;;;5.93;;
22270;SDS011;11304;53.520;10.104;2023-05-13T00:57:34;12.48;;;6.82;;
22270;SDS011;11304;53.520;10.104;2023-05-13T01:00:00;13.18;;;6.30;;
22270;SDS011;11304;53.520;10.104;2023-05-13T01:02:34;9.32;;;6.40;;
22270;SDS011;11304;53.520;10.104;2023-05-13T01:12:30;15.50;;;6.95;;
22270;SDS011;11304;53.520;10.104;2023-05-13T01:15:06;11.70;;;6.47;;
22270;SDS011;11304;53.520;10.104;2023-05-13T01:17:35;9.98;;;6.82;;
22270;SDS011;11304;53.520;10.104;2023-05-13T01:20:02;12.52;;;6.63;;
22270;SDS011;11304;53.520;10.104;2023-05-13T01:22:29;10.88;;;6.75;;
22270;SDS011;11304;53.520;10.104;2023-05-13T01:24:56;10.25;;;6.15;;
22270;SDS011;11304;53.520;10.104;2023-05-13T01:27:22;10.25;;;6.32;;
22270;SDS011;11304;53.520;10.104;2023-05-13T01:29:48;7.20;;;5.53;;
22270;SDS011;11304;53.520;10.104;2023-05-13T01:32:15;8.23;;;6.32;;
22270;SDS011;11304;53.520;10.104;2023-05-13T01:34:41;8.75;;;6.25;;
22270;SDS011;11304;53.520;10.104;2023-05-13T01:37:07;9.43;;;6.78;;
22270;SDS011;11304;53.520;10.104;2023-05-13T01:39:35;14.50;;;7.55;;
22270;SDS011;11304;53.520;10.104;2023-05-13T01:42:02;10.70;;;6.47;;
22270;SDS011;11304;53.520;10.104;2023-05-13T01:44:28;10.77;;;6.93;;
22270;SDS011;11304;53.520;10.104;2023-05-13T01:46:55;9.52;;;6.47;;
22270;SDS011;11304;53.520;10.104;2023-05-13T01:49:21;9.60;;;6.85;;
22270;SDS011;11304;53.520;10.104;2023-05-13T01:51:47;12.20;;;7.40;;
22270;SDS011;11304;53.520;10.104;2023-05-13T01:54:13;8.38;;;6.25;;
22270;SDS011;11304;53.520;10.104;2023-05-13T01:56:39;9.65;;;7.45;;
22270;SDS011;11304;53.520;10.104;2023-05-13T01:59:06;7.28;;;6.07;;
22270;SDS011;11304;53.520;10.104;2023-05-13T02:01:32;10.98;;;6.70;;
22270;SDS011;11304;53.520;10.104;2023-05-13T02:03:58;12.27;;;7.63;;
22270;SDS011;11304;53.520;10.104;2023-05-13T02:06:25;9.48;;;6.93;;
22270;SDS011;11304;53.520;10.104;2023-05-13T02:08:52;9.57;;;7.10;;
22270;SDS011;11304;53.520;10.104;2023-05-13T02:11:18;11.40;;;7.13;;
22270;SDS011;11304;53.520;10.104;2023-05-13T02:13:44;9.52;;;6.22;;
22270;SDS011;11304;53.520;10.104;2023-05-13T02:16:15;9.32;;;5.95;;
22270;SDS011;11304;53.520;10.104;2023-05-13T02:18:41;12.88;;;7.97;;
22270;SDS011;11304;53.520;10.104;2023-05-13T02:21:07;9.82;;;7.75;;
22270;SDS011;11304;53.520;10.104;2023-05-13T02:23:33;8.13;;;6.45;;
22270;SDS011;11304;53.520;10.104;2023-05-13T02:26:00;9.73;;;6.50;;
22270;SDS011;11304;53.520;10.104;2023-05-13T02:28:26;8.48;;;6.00;;
22270;SDS011;11304;53.520;10.104;2023-05-13T02:30:52;9.13;;;7.30;;
22270;SDS011;11304;53.520;10.104;2023-05-13T02:33:18;13.63;;;8.18;;
22270;SDS011;11304;53.520;10.104;2023-05-13T02:35:44;12.65;;;8.55;;
22270;SDS011;11304;53.520;10.104;2023-05-13T02:38:10;8.98;;;7.38;;
22270;SDS011;11304;53.520;10.104;2023-05-13T02:40:37;11.73;;;6.85;;
22270;SDS011;11304;53.520;10.104;2023-05-13T02:43:03;17.25;;;8.70;;
22270;SDS011;11304;53.520;10.104;2023-05-13T02:45:29;19.08;;;9.70;;
22270;SDS011;11304;53.520;10.104;2023-05-13T02:47:55;19.50;;;10.75;;
22270;SDS011;11304;53.520;10.104;2023-05-13T02:50:21;13.73;;;9.05;;
22270;SDS011;11304;53.520;10.104;2023-05-13T02:52:48;13.40;;;8.65;;
22270;SDS011;11304;53.520;10.104;2023-05-13T02:55:14;16.13;;;8.65;;
22270;SDS011;11304;53.520;10.104;2023-05-13T02:57:41;15.07;;;9.82;;
22270;SDS011;11304;53.520;10.104;2023-05-13T03:00:07;13.55;;;9.77;;
22270;SDS011;11304;53.520;10.104;2023-05-13T03:02:33;10.15;;;8.95;;
22270;SDS011;11304;53.520;10.104;2023-05-13T03:05:00;20.25;;;12.23;;
22270;SDS011;11304;53.520;10.104;2023-05-13T03:07:26;15.43;;;11.55;;
22270;SDS011;11304;53.520;10.104;2023-05-13T03:09:52;18.38;;;11.95;;
22270;SDS011;11304;53.520;10.104;2023-05-13T03:12:18;13.05;;;10.93;;
22270;SDS011;11304;53.520;10.104;2023-05-13T03:14:45;16.02;;;11.77;;
22270;SDS011;11304;53.520;10.104;2023-05-13T03:17:11;14.65;;;10.20;;
22270;SDS011;11304;53.520;10.104;2023-05-13T03:19:37;17.50;;;11.57;;
22270;SDS011;11304;53.520;10.104;2023-05-13T03:22:04;20.70;;;15.48;;
22270;SDS011;11304;53.520;10.104;2023-05-13T03:24:30;19.55;;;14.10;;
22270;SDS011;11304;53.520;10.104;2023-05-13T03:26:57;17.27;;;14.10;;
22270;SDS011;11304;53.520;10.104;2023-05-13T03:29:23;15.73;;;10.88;;
22270;SDS011;11304;53.520;10.104;2023-05-13T03:31:49;21.92;;;16.02;;
22270;SDS011;11304;53.520;10.104;2023-05-13T03:34:15;20.23;;;15.57;;
22270;SDS011;11304;53.520;10.104;2023-05-13T03:36:41;20.35;;;15.32;;
22270;SDS011;11304;53.520;10.104;2023-05-13T03:39:08;19.45;;;14.88;;
22270;SDS011;11304;53.520;10.104;2023-05-13T03:41:34;21.85;;;15.05;;
22270;SDS011;11304;53.520;10.104;2023-05-13T03:44:00;19.67;;;15.55;;
22270;SDS011;11304;53.520;10.104;2023-05-13T03:46:27;21.85;;;15.13;;
22270;SDS011;11304;53.520;10.104;2023-05-13T03:48:53;20.20;;;14.50;;
22270;SDS011;11304;53.520;10.104;2023-05-13T03:51:20;20.33;;;13.88;;
22270;SDS011;11304;53.520;10.104;2023-05-13T03:53:46;20.73;;;15.18;;
22270;SDS011;11304;53.520;10.104;2023-05-13T03:56:12;19.13;;;15.75;;
22270;SDS011;11304;53.520;10.104;2023-05-13T03:58:38;23.20;;;16.40;;
22270;SDS011;11304;53.520;10.104;2023-05-13T04:01:08;22.08;;;15.90;;
22270;SDS011;11304;53.520;10.104;2023-05-13T04:03:34;22.25;;;15.93;;
22270;SDS011;11304;53.520;10.104;2023-05-13T04:06:00;19.23;;;14.02;;
22270;SDS011;11304;53.520;10.104;2023-05-13T04:08:26;18.65;;;14.60;;
22270;SDS011;11304;53.520;10.104;2023-05-13T04:10:52;18.90;;;14.70;;
22270;SDS011;11304;53.520;10.104;2023-05-13T04:13:20;16.97;;;13.87;;
22270;SDS011;11304;53.520;10.104;2023-05-13T04:15:46;12.02;;;10.52;;
22270;SDS011;11304;53.520;10.104;2023-05-13T04:18:13;10.73;;;9.25;;
22270;SDS011;11304;53.520;10.104;2023-05-13T04:20:39;12.60;;;10.35;;
22270;SDS011;11304;53.520;10.104;2023-05-13T04:23:05;19.98;;;13.35;;
22270;SDS011;11304;53.520;10.104;2023-05-13T04:25:33;16.70;;;13.40;;
22270;SDS011;11304;53.520;10.104;2023-05-13T04:28:00;17.15;;;12.90;;
22270;SDS011;11304;53.520;10.104;2023-05-13T04:30:26;12.60;;;11.25;;
22270;SDS011;11304;53.520;10.104;2023-05-13T04:32:52;15.02;;;11.65;;
22270;SDS011;11304;53.520;10.104;2023-05-13T04:35:18;13.18;;;11.65;;
22270;SDS011;11304;53.520;10.104;2023-05-13T04:37:44;18.40;;;13.45;;
22270;SDS011;11304;53.520;10.104;2023-05-13T04:40:11;19.77;;;12.88;;
22270;SDS011;11304;53.520;10.104;2023-05-13T04:42:37;17.80;;;12.93;;
22270;SDS011;11304;53.520;10.104;2023-05-13T04:45:03;21.02;;;12.35;;
22270;SDS011;11304;53.520;10.104;2023-05-13T04:47:29;20.58;;;12.43;;
22270;SDS011;11304;53.520;10.104;2023-05-13T04:49:59;18.17;;;13.13;;
22270;SDS011;11304;53.520;10.104;2023-05-13T04:52:25;19.52;;;12.18;;
22270;SDS011;11304;53.520;10.104;2023-05-13T04:54:51;18.20;;;12.13;;
22270;SDS011;11304;53.520;10.104;2023-05-13T04:57:17;14.02;;;11.40;;
22270;SDS011;11304;53.520;10.104;2023-05-13T04:59:43;18.20;;;12.10;;
22270;SDS011;11304;53.520;10.104;2023-05-13T05:02:09;21.67;;;11.68;;
22270;SDS011;11304;53.520;10.104;2023-05-13T05:04:35;20.70;;;11.35;;
22270;SDS011;11304;53.520;10.104;2023-05-13T05:07:02;18.48;;;11.43;;
22270;SDS011;11304;53.520;10.104;2023-05-13T05:09:28;14.77;;;10.40;;
22270;SDS011;11304;53.520;10.104;2023-05-13T05:11:54;17.08;;;11.23;;
22270;SDS011;11304;53.520;10.104;2023-05-13T05:14:20;15.95;;;10.65;;
22270;SDS011;11304;53.520;10.104;2023-05-13T05:16:46;15.63;;;9.75;;
22270;SDS011;11304;53.520;10.104;2023-05-13T05:19:12;14.57;;;10.35;;
22270;SDS011;11304;53.520;10.104;2023-05-13T05:21:38;20.52;;;9.73;;
22270;SDS011;11304;53.520;10.104;2023-05-13T05:24:04;20.35;;;9.50;;
22270;SDS011;11304;53.520;10.104;2023-05-13T05:26:31;16.63;;;9.55;;
22270;SDS011;11304;53.520;10.104;2023-05-13T05:28:57;17.27;;;9.35;;
22270;SDS011;11304;53.520;10.104;2023-05-13T05:31:23;17.92;;;9.15;;
22270;SDS011;11304;53.520;10.104;2023-05-13T05:33:51;19.77;;;9.23;;
22270;SDS011;11304;53.520;10.104;2023-05-13T05:36:17;15.15;;;9.00;;
22270;SDS011;11304;53.520;10.104;2023-05-13T05:38:43;14.60;;;8.93;;
22270;SDS011;11304;53.520;10.104;2023-05-13T05:41:11;12.18;;;8.70;;
22270;SDS011;11304;53.520;10.104;2023-05-13T05:43:37;20.20;;;9.63;;
22270;SDS011;11304;53.520;10.104;2023-05-13T05:46:04;17.92;;;9.30;;
22270;SDS011;11304;53.520;10.104;2023-05-13T05:48:30;13.15;;;7.43;;
22270;SDS011;11304;53.520;10.104;2023-05-13T05:50:56;19.98;;;8.07;;
22270;SDS011;11304;53.520;10.104;2023-05-13T05:53:22;12.48;;;7.28;;
22270;SDS011;11304;53.520;10.104;2023-05-13T05:55:48;15.23;;;7.70;;
22270;SDS011;11304;53.520;10.104;2023-05-13T05:58:15;11.52;;;7.03;;
22270;SDS011;11304;53.520;10.104;2023-05-13T06:00:41;22.23;;;7.32;;
22270;SDS011;11304;53.520;10.104;2023-05-13T06:03:07;12.63;;;7.03;;
22270;SDS011;11304;53.520;10.104;2023-05-13T06:05:33;14.80;;;6.82;;
22270;SDS011;11304;53.520;10.104;2023-05-13T06:08:00;25.83;;;7.18;;
22270;SDS011;11304;53.520;10.104;2023-05-13T06:10:26;28.00;;;7.60;;
22270;SDS011;11304;53.520;10.104;2023-05-13T06:12:52;22.75;;;6.95;;
22270;SDS011;11304;53.520;10.104;2023-05-13T06:15:18;14.93;;;6.93;;
22270;SDS011;11304;53.520;10.104;2023-05-13T06:17:44;13.25;;;6.60;;
22270;SDS011;11304;53.520;10.104;2023-05-13T06:20:11;13.30;;;6.43;;
22270;SDS011;11304;53.520;10.104;2023-05-13T06:22:38;11.95;;;5.88;;
22270;SDS011;11304;53.520;10.104;2023-05-13T06:25:04;20.13;;;6.43;;
22270;SDS011;11304;53.520;10.104;2023-05-13T06:27:30;13.02;;;6.18;;
22270;SDS011;11304;53.520;10.104;2023-05-13T06:29:58;19.05;;;5.95;;
22270;SDS011;11304;53.520;10.104;2023-05-13T06:32:24;8.23;;;5.47;;
22270;SDS011;11304;53.520;10.104;2023-05-13T06:34:50;10.13;;;5.20;;
22270;SDS011;11304;53.520;10.104;2023-05-13T06:37:16;16.85;;;6.22;;
22270;SDS011;11304;53.520;10.104;2023-05-13T06:39:43;8.95;;;5.10;;
22270;SDS011;11304;53.520;10.104;2023-05-13T06:42:09;7.28;;;4.97;;
22270;SDS011;11304;53.520;10.104;2023-05-13T06:44:35;32.83;;;6.63;;
22270;SDS011;11304;53.520;10.104;2023-05-13T06:47:02;11.52;;;5.20;;
22270;SDS011;11304;53.520;10.104;2023-05-13T06:49:29;13.10;;;4.85;;
22270;SDS011;11304;53.520;10.104;2023-05-13T06:51:55;13.57;;;5.38;;
22270;SDS011;11304;53.520;10.104;2023-05-13T06:54:21;14.55;;;4.50;;
22270;SDS011;11304;53.520;10.104;2023-05-13T06:56:48;7.70;;;4.50;;
22270;SDS011;11304;53.520;10.104;2023-05-13T06:59:14;10.77;;;4.65;;
22270;SDS011;11304;53.520;10.104;2023-05-13T07:01:40;9.05;;;5.15;;
22270;SDS011;11304;53.520;10.104;2023-05-13T07:04:06;9.80;;;5.20;;
22270;SDS011;11304;53.520;10.104;2023-05-13T07:06:32;6.35;;;4.30;;
22270;SDS011;11304;53.520;10.104;2023-05-13T07:08:59;7.40;;;4.55;;
22270;SDS011;11304;53.520;10.104;2023-05-13T07:11:25;7.78;;;4.80;;
22270;SDS011;11304;53.520;10.104;2023-05-13T07:13:53;9.55;;;4.50;;
22270;SDS011;11304;53.520;10.104;2023-05-13T07:16:19;10.93;;;4.63;;
22270;SDS011;11304;53.520;10.104;2023-05-13T07:18:45;18.08;;;4.45;;
22270;SDS011;11304;53.520;10.104;2023-05-13T07:21:12;8.50;;;4.40;;
22270;SDS011;11304;53.520;10.104;2023-05-13T07:23:39;8.95;;;4.22;;
22270;SDS011;11304;53.520;10.104;2023-05-13T07:26:05;7.25;;;4.68;;
22270;SDS011;11304;53.520;10.104;2023-05-13T07:28:32;9.68;;;4.40;;
22270;SDS011;11304;53.520;10.104;2023-05-13T07:30:58;7.90;;;4.15;;
22270;SDS011;11304;53.520;10.104;2023-05-13T07:33:24;10.77;;;5.10;;
22270;SDS011;11304;53.520;10.104;2023-05-13T07:35:50;8.40;;;4.20;;
22270;SDS011;11304;53.520;10.104;2023-05-13T07:38:16;10.32;;;4.13;;
22270;SDS011;11304;53.520;10.104;2023-05-13T07:40:42;8.70;;;4.22;;
22270;SDS011;11304;53.520;10.104;2023-05-13T07:43:08;6.90;;;4.45;;
22270;SDS011;11304;53.520;10.104;2023-05-13T07:45:34;6.70;;;3.58;;
22270;SDS011;11304;53.520;10.104;2023-05-13T07:48:00;8.82;;;4.28;;
22270;SDS011;11304;53.520;10.104;2023-05-13T07:50:27;6.35;;;3.92;;
22270;SDS011;11304;53.520;10.104;2023-05-13T07:52:53;10.90;;;3.72;;
22270;SDS011;11304;53.520;10.104;2023-05-13T07:55:19;8.52;;;4.20;;
22270;SDS011;11304;53.520;10.104;2023-05-13T07:57:45;9.70;;;4.15;;
22270;SDS011;11304;53.520;10.104;2023-05-13T08:00:11;7.57;;;3.90;;
22270;SDS011;11304;53.520;10.104;2023-05-13T08:02:38;8.70;;;4.20;;
22270;SDS011;11304;53.520;10.104;2023-05-13T08:05:04;6.82;;;3.65;;
22270;SDS011;11304;53.520;10.104;2023-05-13T08:07:31;11.30;;;3.70;;
22270;SDS011;11304;53.520;10.104;2023-05-13T08:09:57;5.65;;;3.80;;
22270;SDS011;11304;53.520;10.104;2023-05-13T08:12:23;9.30;;;3.60;;
22270;SDS011;11304;53.520;10.104;2023-05-13T08:14:49;7.35;;;3.75;;
22270;SDS011;11304;53.520;10.104;2023-05-13T08:17:15;14.85;;;3.90;;
22270;SDS011;11304;53.520;10.104;2023-05-13T08:19:43;48.03;;;5.93;;
22270;SDS011;11304;53.520;10.104;2023-05-13T08:22:10;28.52;;;5.03;;
22270;SDS011;11304;53.520;10.104;2023-05-13T08:24:36;6.75;;;3.40;;
22270;SDS011;11304;53.520;10.104;2023-05-13T08:27:04;8.50;;;3.53;;
22270;SDS011;11304;53.520;10.104;2023-05-13T08:29:30;9.50;;;3.80;;
22270;SDS011;11304;53.520;10.104;2023-05-13T08:31:56;52.70;;;7.65;;
22270;SDS011;11304;53.520;10.104;2023-05-13T08:34:22;6.65;;;3.60;;
22270;SDS011;11304;53.520;10.104;2023-05-13T08:36:47;6.13;;;3.67;;
22270;SDS011;11304;53.520;10.104;2023-05-13T08:39:13;30.42;;;4.90;;
22270;SDS011;11304;53.520;10.104;2023-05-13T08:41:39;31.90;;;5.55;;
22270;SDS011;11304;53.520;10.104;2023-05-13T08:44:06;8.15;;;3.47;;
22270;SDS011;11304;53.520;10.104;2023-05-13T08:46:36;6.93;;;3.53;;
22270;SDS011;11304;53.520;10.104;2023-05-13T08:49:04;10.05;;;3.47;;
22270;SDS011;11304;53.520;10.104;2023-05-13T08:51:30;12.93;;;3.88;;
22270;SDS011;11304;53.520;10.104;2023-05-13T08:53:56;10.07;;;3.70;;
22270;SDS011;11304;53.520;10.104;2023-05-13T08:56:22;7.50;;;3.40;;
22270;SDS011;11304;53.520;10.104;2023-05-13T08:58:52;16.67;;;3.45;;
22270;SDS011;11304;53.520;10.104;2023-05-13T09:01:18;17.08;;;3.95;;
22270;SDS011;11304;53.520;10.104;2023-05-13T09:04:07;16.45;;;3.88;;
22270;SDS011;11304;53.520;10.104;2023-05-13T09:06:33;7.13;;;3.03;;
22270;SDS011;11304;53.520;10.104;2023-05-13T09:08:58;17.73;;;4.10;;
22270;SDS011;11304;53.520;10.104;2023-05-13T09:11:24;7.63;;;3.53;;
22270;SDS011;11304;53.520;10.104;2023-05-13T09:13:57;17.73;;;4.30;;
22270;SDS011;11304;53.520;10.104;2023-05-13T09:16:24;19.48;;;5.03;;
22270;SDS011;11304;53.520;10.104;2023-05-13T09:18:55;68.00;;;6.43;;
22270;SDS011;11304;53.520;10.104;2023-05-13T09:21:23;6.68;;;3.17;;
22270;SDS011;11304;53.520;10.104;2023-05-13T09:23:54;32.33;;;5.78;;
22270;SDS011;11304;53.520;10.104;2023-05-13T09:26:27;8.75;;;3.90;;
22270;SDS011;11304;53.520;10.104;2023-05-13T09:31:38;24.98;;;3.90;;
22270;SDS011;11304;53.520;10.104;2023-05-13T09:34:04;7.80;;;3.40;;
22270;SDS011;11304;53.520;10.104;2023-05-13T09:36:29;13.23;;;3.95;;
22270;SDS011;11304;53.520;10.104;2023-05-13T09:38:56;66.28;;;7.38;;
22270;SDS011;11304;53.520;10.104;2023-05-13T09:41:25;13.07;;;3.75;;
22270;SDS011;11304;53.520;10.104;2023-05-13T09:43:51;6.70;;;3.60;;
22270;SDS011;11304;53.520;10.104;2023-05-13T09:46:17;7.90;;;3.17;;
22270;SDS011;11304;53.520;10.104;2023-05-13T09:48:43;6.60;;;2.95;;
22270;SDS011;11304;53.520;10.104;2023-05-13T09:51:08;14.65;;;3.58;;
22270;SDS011;11304;53.520;10.104;2023-05-13T09:53:34;15.88;;;3.63;;
22270;SDS011;11304;53.520;10.104;2023-05-13T09:56:00;9.60;;;3.30;;
22270;SDS011;11304;53.520;10.104;2023-05-13T09:58:26;11.88;;;3.35;;
22270;SDS011;11304;53.520;10.104;2023-05-13T10:00:53;8.35;;;3.83;;
22270;SDS011;11304;53.520;10.104;2023-05-13T10:03:19;11.00;;;3.33;;
22270;SDS011;11304;53.520;10.104;2023-05-13T10:05:46;10.52;;;3.58;;
22270;SDS011;11304;53.520;10.104;2023-05-13T10:08:14;9.10;;;3.40;;
22270;SDS011;11304;53.520;10.104;2023-05-13T10:10:41;10.50;;;3.38;;
22270;SDS011;11304;53.520;10.104;2023-05-13T10:13:12;13.70;;;3.80;;
22270;SDS011;11304;53.520;10.104;2023-05-13T10:15:42;9.10;;;3.30;;
22270;SDS011;11304;53.520;10.104;2023-05-13T10:18:12;10.90;;;3.53;;
22270;SDS011;11304;53.520;10.104;2023-05-13T10:20:40;8.60;;;3.22;;
22270;SDS011;11304;53.520;10.104;2023-05-13T10:23:06;12.02;;;3.60;;
22270;SDS011;11304;53.520;10.104;2023-05-13T10:25:32;10.77;;;3.70;;
22270;SDS011;11304;53.520;10.104;2023-05-13T10:27:58;10.98;;;3.45;;
22270;SDS011;11304;53.520;10.104;2023-05-13T10:30:27;18.00;;;4.05;;
22270;SDS011;11304;53.520;10.104;2023-05-13T10:32:56;7.78;;;3.10;;
22270;SDS011;11304;53.520;10.104;2023-05-13T10:35:27;7.30;;;3.33;;
22270;SDS011;11304;53.520;10.104;2023-05-13T10:43:33;11.80;;;7.63;;
22270;SDS011;11304;53.520;10.104;2023-05-13T10:46:00;9.48;;;3.40;;
22270;SDS011;11304;53.520;10.104;2023-05-13T10:48:46;8.38;;;3.20;;
22270;SDS011;11304;53.520;10.104;2023-05-13T10:51:15;7.85;;;3.22;;
22270;SDS011;11304;53.520;10.104;2023-05-13T10:56:10;8.13;;;3.20;;
22270;SDS011;11304;53.520;10.104;2023-05-13T10:58:36;7.30;;;3.58;;
22270;SDS011;11304;53.520;10.104;2023-05-13T11:01:19;13.43;;;6.55;;
22270;SDS011;11304;53.520;10.104;2023-05-13T11:03:57;7.32;;;3.80;;
22270;SDS011;11304;53.520;10.104;2023-05-13T11:06:40;7.18;;;3.25;;
22270;SDS011;11304;53.520;10.104;2023-05-13T11:09:28;9.10;;;3.05;;
22270;SDS011;11304;53.520;10.104;2023-05-13T11:11:55;13.65;;;3.25;;
22270;SDS011;11304;53.520;10.104;2023-05-13T11:14:25;19.70;;;3.35;;
22270;SDS011;11304;53.520;10.104;2023-05-13T11:19:29;7.65;;;3.25;;
22270;SDS011;11304;53.520;10.104;2023-05-13T11:21:57;12.15;;;3.40;;
22270;SDS011;11304;53.520;10.104;2023-05-13T11:24:29;7.00;;;3.10;;
22270;SDS011;11304;53.520;10.104;2023-05-13T11:26:57;10.85;;;3.50;;
22270;SDS011;11304;53.520;10.104;2023-05-13T11:29:36;9.68;;;2.88;;
22270;SDS011;11304;53.520;10.104;2023-05-13T11:32:03;8.00;;;2.50;;
22270;SDS011;11304;53.520;10.104;2023-05-13T11:34:31;7.95;;;2.80;;
22270;SDS011;11304;53.520;10.104;2023-05-13T11:39:29;7.25;;;3.28;;
22270;SDS011;11304;53.520;10.104;2023-05-13T11:41:56;7.28;;;2.80;;
22270;SDS011;11304;53.520;10.104;2023-05-13T11:44:25;22.27;;;4.22;;
22270;SDS011;11304;53.520;10.104;2023-05-13T11:49:40;5.53;;;2.55;;
22270;SDS011;11304;53.520;10.104;2023-05-13T11:52:11;8.00;;;3.03;;
22270;SDS011;11304;53.520;10.104;2023-05-13T11:54:42;4.25;;;2.65;;
22270;SDS011;11304;53.520;10.104;2023-05-13T12:02:21;7.43;;;2.88;;
22270;SDS011;11304;53.520;10.104;2023-05-13T12:04:49;5.82;;;2.80;;
22270;SDS011;11304;53.520;10.104;2023-05-13T12:07:22;4.90;;;2.55;;
22270;SDS011;11304;53.520;10.104;2023-05-13T12:09:49;4.05;;;2.78;;
22270;SDS011;11304;53.520;10.104;2023-05-13T12:12:16;5.00;;;2.47;;
22270;SDS011;11304;53.520;10.104;2023-05-13T12:14:46;4.13;;;2.20;;
22270;SDS011;11304;53.520;10.104;2023-05-13T12:17:17;5.38;;;2.42;;
22270;SDS011;11304;53.520;10.104;2023-05-13T12:28:07;4.78;;;2.30;;
22270;SDS011;11304;53.520;10.104;2023-05-13T12:30:59;12.20;;;2.83;;
22270;SDS011;11304;53.520;10.104;2023-05-13T12:33:26;7.28;;;2.40;;
22270;SDS011;11304;53.520;10.104;2023-05-13T12:35:54;4.78;;;2.30;;
22270;SDS011;11304;53.520;10.104;2023-05-13T12:39:19;4.30;;;2.67;;
22270;SDS011;11304;53.520;10.104;2023-05-13T12:41:49;8.02;;;2.50;;
22270;SDS011;11304;53.520;10.104;2023-05-13T12:44:17;10.40;;;2.38;;
22270;SDS011;11304;53.520;10.104;2023-05-13T12:46:52;8.75;;;2.50;;
22270;SDS011;11304;53.520;10.104;2023-05-13T12:49:19;8.10;;;3.80;;
22270;SDS011;11304;53.520;10.104;2023-05-13T12:51:46;5.10;;;2.35;;
22270;SDS011;11304;53.520;10.104;2023-05-13T12:54:12;6.00;;;2.60;;
22270;SDS011;11304;53.520;10.104;2023-05-13T12:56:38;4.80;;;2.40;;
22270;SDS011;11304;53.520;10.104;2023-05-13T12:59:04;5.72;;;2.20;;
22270;SDS011;11304;53.520;10.104;2023-05-13T13:01:30;4.85;;;2.10;;
22270;SDS011;11304;53.520;10.104;2023-05-13T13:03:56;5.28;;;2.42;;
22270;SDS011;11304;53.520;10.104;2023-05-13T13:06:22;6.53;;;2.40;;
22270;SDS011;11304;53.520;10.104;2023-05-13T13:08:47;4.90;;;2.50;;
22270;SDS011;11304;53.520;10.104;2023-05-13T13:11:13;5.47;;;2.42;;
22270;SDS011;11304;53.520;10.104;2023-05-13T13:13:42;5.90;;;2.50;;
22270;SDS011;11304;53.520;10.104;2023-05-13T13:16:09;5.13;;;2.47;;
22270;SDS011;11304;53.520;10.104;2023-05-13T13:18:34;5.57;;;2.53;;
22270;SDS011;11304;53.520;10.104;2023-05-13T13:21:00;6.95;;;2.53;;
22270;SDS011;11304;53.520;10.104;2023-05-13T13:23:26;4.47;;;2.53;;
22270;SDS011;11304;53.520;10.104;2023-05-13T13:25:52;5.72;;;2.25;;
22270;SDS011;11304;53.520;10.104;2023-05-13T13:28:18;8.85;;;2.30;;
22270;SDS011;11304;53.520;10.104;2023-05-13T13:30:43;8.05;;;2.53;;
22270;SDS011;11304;53.520;10.104;2023-05-13T13:33:13;3.83;;;2.55;;
22270;SDS011;11304;53.520;10.104;2023-05-13T13:35:39;4.75;;;2.33;;
22270;SDS011;11304;53.520;10.104;2023-05-13T13:38:05;3.92;;;2.47;;
22270;SDS011;11304;53.520;10.104;2023-05-13T13:40:32;3.70;;;2.20;;
22270;SDS011;11304;53.520;10.104;2023-05-13T13:42:58;5.68;;;2.28;;
22270;SDS011;11304;53.520;10.104;2023-05-13T13:45:24;4.95;;;2.22;;
22270;SDS011;11304;53.520;10.104;2023-05-13T13:47:50;5.47;;;2.25;;
22270;SDS011;11304;53.520;10.104;2023-05-13T13:50:15;7.65;;;2.10;;
22270;SDS011;11304;53.520;10.104;2023-05-13T13:52:41;4.97;;;2.33;;
22270;SDS011;11304;53.520;10.104;2023-05-13T13:55:07;5.38;;;2.47;;
22270;SDS011;11304;53.520;10.104;2023-05-13T13:57:32;7.90;;;2.45;;
22270;SDS011;11304;53.520;10.104;2023-05-13T13:59:58;4.30;;;2.30;;
22270;SDS011;11304;53.520;10.104;2023-05-13T14:02:24;5.93;;;2.42;;
22270;SDS011;11304;53.520;10.104;2023-05-13T14:04:50;3.58;;;2.42;;
22270;SDS011;11304;53.520;10.104;2023-05-13T14:07:16;3.33;;;2.10;;
22270;SDS011;11304;53.520;10.104;2023-05-13T14:09:42;5.25;;;2.20;;
22270;SDS011;11304;53.520;10.104;2023-05-13T14:12:08;3.33;;;2.25;;
22270;SDS011;11304;53.520;10.104;2023-05-13T14:14:33;7.43;;;2.50;;
22270;SDS011;11304;53.520;10.104;2023-05-13T14:16:59;3.83;;;2.17;;
22270;SDS011;11304;53.520;10.104;2023-05-13T14:19:25;3.53;;;2.28;;
22270;SDS011;11304;53.520;10.104;2023-05-13T14:21:50;5.47;;;2.30;;
22270;SDS011;11304;53.520;10.104;2023-05-13T14:24:16;6.53;;;2.10;;
22270;SDS011;11304;53.520;10.104;2023-05-13T14:26:42;6.90;;;2.40;;
22270;SDS011;11304;53.520;10.104;2023-05-13T14:29:07;6.35;;;2.30;;
22270;SDS011;11304;53.520;10.104;2023-05-13T14:31:33;6.30;;;2.13;;
22270;SDS011;11304;53.520;10.104;2023-05-13T14:33:59;5.25;;;1.90;;
22270;SDS011;11304;53.520;10.104;2023-05-13T14:36:25;5.20;;;2.30;;
22270;SDS011;11304;53.520;10.104;2023-05-13T14:38:51;5.32;;;2.13;;
22270;SDS011;11304;53.520;10.104;2023-05-13T14:41:17;5.18;;;2.28;;
22270;SDS011;11304;53.520;10.104;2023-05-13T14:43:47;3.95;;;2.30;;
22270;SDS011;11304;53.520;10.104;2023-05-13T14:46:13;9.88;;;2.53;;
22270;SDS011;11304;53.520;10.104;2023-05-13T14:48:39;5.80;;;2.00;;
22270;SDS011;11304;53.520;10.104;2023-05-13T14:51:05;5.78;;;2.30;;
22270;SDS011;11304;53.520;10.104;2023-05-13T14:53:31;3.83;;;2.03;;
22270;SDS011;11304;53.520;10.104;2023-05-13T14:55:56;5.22;;;2.40;;
22270;SDS011;11304;53.520;10.104;2023-05-13T14:58:22;4.13;;;1.95;;
22270;SDS011;11304;53.520;10.104;2023-05-13T15:00:48;7.50;;;2.30;;
22270;SDS011;11304;53.520;10.104;2023-05-13T15:03:14;3.65;;;2.20;;
22270;SDS011;11304;53.520;10.104;2023-05-13T15:05:41;3.10;;;1.92;;